createdAt,value
2022-11-05T00:00:18.514Z,3.00
2022-11-05T00:01:39.869Z,2.30
2022-11-05T00:03:01.296Z,4.38
2022-11-05T00:04:29.817Z,2.67
2022-11-05T00:05:56.655Z,1.77
2022-11-05T00:07:50.055Z,4.85
2022-11-05T00:09:11.322Z,3.20
2022-11-05T00:10:27.199Z,1.92
2022-11-05T00:11:50.369Z,1.08
2022-11-05T00:13:13.165Z,2.80
2022-11-05T00:14:34.335Z,2.72
2022-11-05T00:15:55.489Z,2.30
2022-11-05T00:16:57.918Z,3.58
2022-11-05T00:18:02.578Z,1.33
2022-11-05T00:19:08.184Z,3.25
2022-11-05T00:20:13.719Z,2.58
2022-11-05T00:21:34.710Z,2.40
2022-11-05T00:22:55.637Z,1.40
2022-11-05T00:24:21.727Z,1.50
2022-11-05T00:25:27.918Z,4.78
2022-11-05T00:26:31.444Z,2.25
2022-11-05T00:27:34.302Z,1.63
2022-11-05T00:28:43.818Z,5.05
2022-11-05T00:29:46.597Z,2.20
2022-11-05T00:30:49.888Z,2.80
2022-11-05T00:31:52.271Z,2.40
2022-11-05T00:33:00.054Z,2.13
2022-11-05T00:34:02.801Z,1.75
2022-11-05T00:35:07.454Z,2.92
2022-11-05T00:36:11.479Z,1.10
2022-11-05T00:37:21.134Z,1.65
2022-11-05T00:38:24.495Z,1.33
2022-11-05T00:39:27.103Z,3.03
2022-11-05T00:40:32.108Z,1.67
2022-11-05T00:41:34.857Z,3.05
2022-11-05T00:42:57.521Z,1.45
2022-11-05T00:44:21.706Z,3.47
2022-11-05T00:45:24.230Z,2.30
2022-11-05T00:46:28.978Z,1.95
2022-11-05T00:47:51.953Z,1.63
2022-11-05T00:49:14.456Z,1.63
2022-11-05T00:50:17.848Z,2.28
2022-11-05T00:51:20.724Z,1.67
2022-11-05T00:52:42.111Z,1.65
2022-11-05T00:53:50.464Z,1.63
2022-11-05T00:54:52.986Z,1.30
2022-11-05T00:56:03.252Z,1.60
2022-11-05T00:57:05.870Z,3.65
2022-11-05T00:58:13.749Z,4.63
2022-11-05T00:59:16.587Z,2.13
2022-11-05T01:00:19.417Z,1.58
2022-11-05T01:01:22.069Z,1.90
2022-11-05T01:02:24.819Z,2.67
2022-11-05T01:03:33.744Z,1.98
2022-11-05T01:04:36.191Z,1.20
2022-11-05T01:05:43.716Z,1.92
2022-11-05T01:06:46.392Z,5.32
2022-11-05T01:07:48.932Z,2.25
2022-11-05T01:08:51.217Z,3.72
2022-11-05T01:09:53.508Z,1.65
2022-11-05T01:10:58.189Z,1.55
2022-11-05T01:12:00.580Z,1.45
2022-11-05T01:13:02.920Z,1.45
2022-11-05T01:14:08.090Z,2.20
2022-11-05T01:15:10.519Z,5.30
2022-11-05T01:16:12.969Z,2.03
2022-11-05T01:17:15.398Z,1.58
2022-11-05T01:18:20.866Z,4.63
2022-11-05T01:19:25.967Z,1.83
2022-11-05T01:20:28.574Z,2.15
2022-11-05T01:21:31.152Z,4.00
2022-11-05T01:22:36.815Z,2.90
2022-11-05T01:23:39.277Z,2.08
2022-11-05T01:24:41.588Z,3.47
2022-11-05T01:25:44.434Z,2.28
2022-11-05T01:26:46.740Z,1.40
2022-11-05T01:27:49.122Z,1.67
2022-11-05T01:28:56.514Z,3.22
2022-11-05T01:29:58.983Z,3.40
2022-11-05T01:31:01.300Z,3.75
2022-11-05T01:32:03.861Z,3.72
2022-11-05T01:33:06.650Z,2.10
2022-11-05T01:34:09.244Z,4.15
2022-11-05T01:35:14.262Z,4.50
2022-11-05T01:36:16.997Z,3.53
2022-11-05T01:37:19.347Z,4.68
2022-11-05T01:38:21.615Z,1.15
2022-11-05T01:39:23.951Z,2.38
2022-11-05T01:40:26.471Z,1.65
2022-11-05T01:41:29.426Z,2.03
2022-11-05T01:42:32.789Z,2.10
2022-11-05T01:44:04.362Z,2.05
2022-11-05T01:45:10.043Z,1.42
2022-11-05T01:46:12.528Z,2.38
2022-11-05T01:47:30.720Z,1.50
2022-11-05T01:48:35.948Z,2.53
2022-11-05T01:49:38.398Z,2.63
2022-11-05T01:50:53.396Z,1.63
2022-11-05T01:51:58.741Z,2.00
2022-11-05T01:53:06.112Z,2.10
2022-11-05T01:54:12.511Z,2.45
2022-11-05T01:55:18.611Z,1.77
2022-11-05T01:56:28.314Z,2.22
2022-11-05T01:57:32.394Z,4.22
2022-11-05T01:58:58.708Z,2.70
2022-11-05T02:00:02.099Z,19.73
2022-11-05T02:01:16.062Z,7.47
2022-11-05T02:02:19.139Z,29.80
2022-11-05T02:03:21.776Z,11.23
2022-11-05T02:04:32.864Z,11.30
2022-11-05T02:05:35.657Z,13.02
2022-11-05T02:06:45.936Z,7.55
2022-11-05T02:07:49.048Z,4.05
2022-11-05T02:09:03.252Z,6.65
2022-11-05T02:10:10.673Z,5.07
2022-11-05T02:11:17.195Z,4.10
2022-11-05T02:12:21.232Z,3.42
2022-11-05T02:13:23.629Z,10.43
2022-11-05T02:14:31.021Z,2.20
2022-11-05T02:15:52.759Z,2.03
2022-11-05T02:17:09.899Z,7.50
2022-11-05T02:18:33.141Z,3.50
2022-11-05T02:20:00.422Z,8.05
2022-11-05T02:21:19.919Z,17.27
2022-11-05T02:22:24.958Z,45.08
2022-11-05T02:24:09.836Z,20.50
2022-11-05T02:26:05.144Z,143.02
2022-11-05T02:27:12.039Z,31.52
2022-11-05T02:28:26.248Z,18.10
2022-11-05T02:30:05.521Z,12.80
2022-11-05T02:31:15.968Z,10.00
2022-11-05T02:32:21.124Z,10.77
2022-11-05T02:33:38.638Z,8.75
2022-11-05T02:34:50.514Z,8.15
2022-11-05T02:36:11.667Z,8.43
2022-11-05T02:37:40.266Z,7.85
2022-11-05T02:38:50.368Z,6.68
2022-11-05T02:40:24.146Z,7.18
2022-11-05T02:42:04.531Z,6.97
2022-11-05T02:43:30.863Z,24.65
2022-11-05T02:44:51.237Z,105.40
2022-11-05T02:46:13.178Z,88.45
2022-11-05T02:47:29.653Z,30.10
2022-11-05T02:48:57.252Z,20.08
2022-11-05T02:50:35.345Z,69.03
2022-11-05T02:51:58.324Z,76.18
2022-11-05T02:53:11.656Z,34.72
2022-11-05T02:54:39.732Z,40.47
2022-11-05T02:56:05.734Z,35.45
2022-11-05T02:57:19.274Z,30.35
2022-11-05T02:58:21.839Z,29.00
2022-11-05T02:59:26.684Z,23.73
2022-11-05T03:00:57.227Z,23.65
2022-11-05T03:02:03.340Z,21.80
2022-11-05T03:03:26.955Z,21.10
2022-11-05T03:04:30.383Z,22.27
2022-11-05T03:06:05.807Z,20.30
2022-11-05T03:07:42.599Z,20.08
2022-11-05T03:08:53.658Z,18.83
2022-11-05T03:10:23.508Z,23.45
2022-11-05T03:11:29.649Z,40.83
2022-11-05T03:12:50.700Z,139.80
2022-11-05T03:14:18.302Z,63.28
2022-11-05T03:15:52.809Z,37.03
2022-11-05T03:17:33.646Z,27.77
2022-11-05T03:18:53.024Z,16.17
2022-11-05T03:20:26.079Z,17.45
2022-11-05T03:21:50.359Z,18.23
2022-11-05T03:23:32.676Z,21.92
2022-11-05T03:24:51.262Z,24.30
2022-11-05T03:26:27.214Z,20.33
2022-11-05T03:27:33.280Z,23.92
2022-11-05T03:28:38.620Z,19.58
2022-11-05T03:29:49.572Z,19.02
2022-11-05T03:30:56.659Z,21.63
2022-11-05T03:32:01.801Z,22.48
2022-11-05T03:33:11.771Z,20.20
2022-11-05T03:34:17.867Z,23.42
2022-11-05T03:35:27.012Z,18.05
2022-11-05T03:36:39.616Z,19.30
2022-11-05T03:37:43.957Z,24.17
2022-11-05T03:38:51.462Z,18.13
2022-11-05T03:39:57.898Z,24.45
2022-11-05T03:41:04.843Z,17.55
2022-11-05T03:42:11.254Z,18.98
2022-11-05T03:43:14.592Z,19.45
2022-11-05T03:44:25.126Z,16.98
2022-11-05T03:45:38.304Z,17.60
2022-11-05T03:46:49.297Z,18.58
2022-11-05T03:47:56.518Z,19.00
2022-11-05T03:49:03.207Z,19.95
2022-11-05T03:50:21.744Z,20.15
2022-11-05T03:51:41.748Z,17.98
2022-11-05T03:52:52.627Z,18.67
2022-11-05T03:53:58.715Z,17.23
2022-11-05T03:55:01.117Z,17.65
2022-11-05T03:56:10.594Z,17.83
2022-11-05T03:57:23.486Z,19.02
2022-11-05T03:58:27.048Z,20.52
2022-11-05T03:59:31.282Z,19.60
2022-11-05T04:00:33.794Z,17.98
2022-11-05T04:01:38.351Z,16.38
2022-11-05T04:02:41.807Z,22.08
2022-11-05T04:03:44.150Z,39.15
2022-11-05T04:04:46.562Z,35.25
2022-11-05T04:06:09.242Z,76.65
2022-11-05T04:07:31.313Z,43.15
2022-11-05T04:08:52.317Z,86.80
2022-11-05T04:10:13.454Z,65.78
2022-11-05T04:11:34.597Z,105.25
2022-11-05T04:12:55.600Z,41.17
2022-11-05T04:13:57.888Z,53.17
2022-11-05T04:15:00.340Z,42.28
2022-11-05T04:16:21.465Z,36.50
2022-11-05T04:17:23.846Z,32.90
2022-11-05T04:18:26.169Z,28.95
2022-11-05T04:19:48.588Z,32.83
2022-11-05T04:21:09.694Z,35.97
2022-11-05T04:22:30.848Z,30.30
2022-11-05T04:23:51.868Z,31.70
2022-11-05T04:24:54.249Z,29.20
2022-11-05T04:25:56.577Z,27.83
2022-11-05T04:26:59.256Z,29.15
2022-11-05T04:28:01.706Z,27.10
2022-11-05T04:29:23.176Z,34.50
2022-11-05T04:30:25.613Z,29.02
2022-11-05T04:31:27.876Z,29.90
2022-11-05T04:32:30.182Z,29.42
2022-11-05T04:33:32.510Z,28.45
2022-11-05T04:34:34.817Z,28.17
2022-11-05T04:35:39.953Z,31.40
2022-11-05T04:36:42.957Z,31.42
2022-11-05T04:37:45.230Z,32.58
2022-11-05T04:38:47.516Z,28.27
2022-11-05T04:39:49.871Z,29.55
2022-11-05T04:40:52.218Z,27.98
2022-11-05T04:41:54.539Z,27.08
2022-11-05T04:42:57.039Z,29.58
2022-11-05T04:43:59.404Z,25.52
2022-11-05T04:45:01.699Z,22.35
2022-11-05T04:46:04.020Z,24.05
2022-11-05T04:47:06.383Z,24.08
2022-11-05T04:48:08.716Z,24.67
2022-11-05T04:49:11.111Z,23.95
2022-11-05T04:50:13.421Z,22.27
2022-11-05T04:51:15.836Z,25.98
2022-11-05T04:52:18.207Z,24.30
2022-11-05T04:53:20.452Z,20.50
2022-11-05T04:54:22.819Z,22.13
2022-11-05T04:55:26.274Z,22.95
2022-11-05T04:56:28.589Z,69.20
2022-11-05T04:57:30.960Z,194.23
2022-11-05T04:58:33.338Z,221.98
2022-11-05T04:59:36.045Z,178.50
2022-11-05T05:00:38.600Z,115.63
2022-11-05T05:01:41.138Z,118.35
2022-11-05T05:02:44.208Z,96.75
2022-11-05T05:03:48.286Z,105.88
2022-11-05T05:04:50.623Z,88.13
2022-11-05T05:05:53.921Z,79.95
2022-11-05T05:06:56.535Z,78.53
2022-11-05T05:08:02.500Z,63.55
2022-11-05T05:09:04.987Z,51.22
2022-11-05T05:10:08.987Z,50.25
2022-11-05T05:11:13.309Z,50.92
2022-11-05T05:12:15.871Z,52.95
2022-11-05T05:13:18.183Z,47.75
2022-11-05T05:14:20.482Z,49.70
2022-11-05T05:15:23.457Z,49.30
2022-11-05T05:16:27.304Z,48.10
2022-11-05T05:17:29.596Z,49.28
2022-11-05T05:18:31.941Z,49.05
2022-11-05T05:19:57.200Z,45.33
2022-11-05T05:21:18.275Z,46.38
2022-11-05T05:22:20.661Z,42.40
2022-11-05T05:23:23.098Z,43.90
2022-11-05T05:24:25.465Z,43.92
2022-11-05T05:25:27.841Z,41.05
2022-11-05T05:26:30.216Z,48.00
2022-11-05T05:27:32.585Z,41.75
2022-11-05T05:28:34.991Z,45.55
2022-11-05T05:29:37.312Z,47.08
2022-11-05T05:30:39.657Z,43.08
2022-11-05T05:31:42.535Z,46.55
2022-11-05T05:32:44.934Z,46.58
2022-11-05T05:33:47.539Z,39.67
2022-11-05T05:34:50.021Z,45.90
2022-11-05T05:35:52.390Z,42.75
2022-11-05T05:36:54.833Z,42.10
2022-11-05T05:37:57.205Z,40.95
2022-11-05T05:38:59.630Z,38.28
2022-11-05T05:40:01.987Z,40.67
2022-11-05T05:41:04.481Z,39.58
2022-11-05T05:42:06.817Z,40.08
2022-11-05T05:43:09.376Z,35.47
2022-11-05T05:44:11.979Z,34.88
2022-11-05T05:45:14.282Z,318.50
2022-11-05T05:46:18.447Z,129.02
2022-11-05T05:47:20.802Z,58.92
2022-11-05T05:48:24.359Z,57.63
2022-11-05T05:49:26.640Z,52.08
2022-11-05T05:50:29.019Z,55.28
2022-11-05T05:51:31.402Z,58.13
2022-11-05T05:52:33.739Z,59.25
2022-11-05T05:53:36.748Z,56.50
2022-11-05T05:54:42.646Z,52.92
2022-11-05T05:55:45.488Z,54.45
2022-11-05T05:56:47.793Z,52.88
2022-11-05T05:57:50.126Z,59.70
2022-11-05T05:58:52.485Z,51.90
2022-11-05T05:59:54.817Z,47.30
2022-11-05T06:01:01.459Z,53.72
2022-11-05T06:02:03.987Z,48.22
2022-11-05T06:03:06.565Z,48.42
2022-11-05T06:04:09.783Z,47.80
2022-11-05T06:05:12.125Z,48.55
2022-11-05T06:06:16.192Z,48.60
2022-11-05T06:07:18.575Z,44.22
2022-11-05T06:08:20.841Z,45.25
2022-11-05T06:09:23.220Z,49.50
2022-11-05T06:10:25.981Z,39.25
2022-11-05T06:11:28.515Z,41.78
2022-11-05T06:12:30.968Z,41.15
2022-11-05T06:13:33.485Z,41.08
2022-11-05T06:14:35.842Z,43.20
2022-11-05T06:15:38.163Z,39.92
2022-11-05T06:16:40.657Z,39.90
2022-11-05T06:17:45.893Z,42.80
2022-11-05T06:18:49.053Z,39.90
2022-11-05T06:19:51.407Z,38.58
2022-11-05T06:20:53.768Z,42.80
2022-11-05T06:21:56.137Z,48.88
2022-11-05T06:22:58.518Z,51.28
2022-11-05T06:24:02.518Z,57.90
2022-11-05T06:25:06.107Z,47.58
2022-11-05T06:26:10.854Z,51.78
2022-11-05T06:27:13.209Z,42.00
2022-11-05T06:28:15.566Z,42.45
2022-11-05T06:29:17.954Z,42.17
2022-11-05T06:30:21.623Z,39.80
2022-11-05T06:31:24.354Z,40.50
2022-11-05T06:32:26.684Z,40.35
2022-11-05T06:33:29.390Z,38.72
2022-11-05T06:34:31.683Z,38.58
2022-11-05T06:35:34.029Z,39.50
2022-11-05T06:36:36.451Z,34.85
2022-11-05T06:37:38.836Z,39.42
2022-11-05T06:38:41.200Z,34.47
2022-11-05T06:39:43.513Z,40.08
2022-11-05T06:40:45.947Z,34.95
2022-11-05T06:42:16.619Z,34.70
2022-11-05T06:43:10.843Z,37.25
2022-11-05T06:44:13.285Z,35.80
2022-11-05T06:45:15.629Z,33.58
2022-11-05T06:46:18.012Z,33.88
2022-11-05T06:47:20.396Z,35.70
2022-11-05T06:48:23.205Z,37.13
2022-11-05T06:49:25.631Z,36.47
2022-11-05T06:50:28.781Z,35.97
2022-11-05T06:51:31.163Z,37.17
2022-11-05T06:52:38.310Z,36.55
2022-11-05T06:53:43.315Z,33.38
2022-11-05T06:54:45.625Z,36.30
2022-11-05T06:55:47.994Z,32.85
2022-11-05T06:56:50.336Z,36.17
2022-11-05T06:57:52.915Z,31.05
2022-11-05T06:58:55.279Z,34.22
2022-11-05T07:00:02.315Z,39.35
2022-11-05T07:01:09.101Z,31.65
2022-11-05T07:02:13.510Z,36.28
2022-11-05T07:03:16.061Z,33.47
2022-11-05T07:04:18.362Z,33.70
2022-11-05T07:05:20.829Z,38.45
2022-11-05T07:06:23.187Z,33.45
2022-11-05T07:11:07.714Z,32.65
2022-11-05T07:12:10.214Z,31.98
2022-11-05T07:13:12.910Z,32.17
2022-11-05T07:14:15.466Z,31.35
2022-11-05T07:15:17.904Z,34.90
2022-11-05T07:16:20.372Z,34.20
2022-11-05T07:17:23.144Z,33.33
2022-11-05T07:18:25.547Z,20.80
2022-11-05T07:19:27.873Z,19.98
2022-11-05T07:20:33.853Z,15.07
2022-11-05T07:21:36.935Z,15.68
2022-11-05T07:22:39.358Z,15.15
2022-11-05T07:23:41.678Z,23.17
2022-11-05T07:24:47.067Z,56.08
2022-11-05T07:25:49.494Z,132.95
2022-11-05T07:26:51.804Z,70.68
2022-11-05T07:27:54.098Z,80.30
2022-11-05T07:28:56.400Z,79.03
2022-11-05T07:29:58.804Z,65.50
2022-11-05T07:31:01.384Z,58.95
2022-11-05T07:32:03.782Z,39.60
2022-11-05T07:33:06.160Z,42.42
2022-11-05T07:34:08.517Z,41.10
2022-11-05T07:35:10.801Z,40.15
2022-11-05T07:36:14.729Z,39.30
2022-11-05T07:37:17.031Z,39.28
2022-11-05T07:38:19.393Z,40.90
2022-11-05T07:39:21.862Z,37.88
2022-11-05T07:40:26.852Z,36.45
2022-11-05T07:41:29.737Z,33.45
2022-11-05T07:42:34.291Z,42.47
2022-11-05T07:43:36.583Z,34.28
2022-11-05T07:44:38.901Z,36.83
2022-11-05T07:45:41.252Z,30.33
2022-11-05T07:46:43.939Z,38.92
2022-11-05T07:47:51.106Z,32.50
2022-11-05T07:48:53.444Z,33.80
2022-11-05T07:49:55.725Z,33.30
2022-11-05T07:50:58.202Z,32.10
2022-11-05T07:52:00.506Z,34.72
2022-11-05T07:53:09.754Z,34.03
2022-11-05T07:54:12.473Z,36.00
2022-11-05T07:55:16.054Z,32.28
2022-11-05T07:56:18.551Z,33.45
2022-11-05T07:57:20.951Z,33.50
2022-11-05T07:58:23.291Z,36.00
2022-11-05T07:59:25.602Z,31.25
2022-11-05T08:00:28.994Z,31.17
2022-11-05T08:01:31.559Z,37.08
2022-11-05T08:02:34.154Z,32.75
2022-11-05T08:03:36.726Z,29.60
2022-11-05T08:04:40.246Z,32.08
2022-11-05T08:05:45.929Z,34.75
2022-11-05T08:06:48.254Z,32.05
2022-11-05T08:07:50.673Z,40.42
2022-11-05T08:08:52.955Z,37.13
2022-11-05T08:09:55.298Z,42.88
2022-11-05T08:11:05.069Z,37.40
2022-11-05T08:12:08.505Z,40.47
2022-11-05T08:13:12.880Z,39.88
2022-11-05T08:14:15.375Z,42.70
2022-11-05T08:15:17.728Z,37.03
2022-11-05T08:16:20.006Z,34.60
2022-11-05T08:17:22.372Z,37.25
2022-11-05T08:18:31.166Z,34.75
2022-11-05T08:19:33.456Z,39.00
2022-11-05T08:20:36.368Z,34.13
2022-11-05T08:21:38.729Z,34.40
2022-11-05T08:22:44.766Z,41.17
2022-11-05T08:23:47.166Z,36.38
2022-11-05T08:24:49.931Z,35.15
2022-11-05T08:25:52.497Z,30.67
2022-11-05T08:26:54.813Z,33.78
2022-11-05T08:28:03.286Z,32.83
2022-11-05T08:29:05.596Z,32.85
2022-11-05T08:30:09.292Z,31.48
2022-11-05T08:31:11.955Z,34.83
2022-11-05T08:32:14.761Z,33.20
2022-11-05T08:33:17.509Z,32.42
2022-11-05T08:34:19.891Z,31.35
2022-11-05T08:35:22.208Z,32.05
2022-11-05T08:36:24.501Z,30.80
2022-11-05T08:37:26.928Z,30.63
2022-11-05T08:38:29.691Z,30.55
2022-11-05T08:39:32.009Z,33.47
2022-11-05T08:40:36.395Z,37.42
2022-11-05T08:41:40.353Z,33.42
2022-11-05T08:42:42.691Z,33.72
2022-11-05T08:43:45.004Z,33.22
2022-11-05T08:44:47.350Z,32.97
2022-11-05T08:45:50.141Z,29.98
2022-11-05T08:46:52.902Z,46.10
2022-11-05T08:48:06.884Z,45.70
2022-11-05T08:49:09.215Z,46.92
2022-11-05T08:50:11.588Z,36.10
2022-11-05T08:51:13.936Z,35.08
2022-11-05T08:52:16.336Z,37.83
2022-11-05T08:53:18.877Z,36.08
2022-11-05T08:54:21.208Z,35.05
2022-11-05T08:55:23.746Z,32.00
2022-11-05T08:56:26.042Z,33.35
2022-11-05T08:57:28.575Z,32.17
2022-11-05T08:58:31.005Z,31.20
2022-11-05T08:59:33.437Z,38.35
2022-11-05T09:00:37.002Z,32.00
2022-11-05T09:01:39.655Z,34.63
2022-11-05T09:02:42.137Z,35.00
2022-11-05T09:03:44.529Z,31.35
2022-11-05T09:04:46.808Z,28.92
2022-11-05T09:05:49.164Z,27.85
2022-11-05T09:06:51.502Z,30.02
2022-11-05T09:07:59.420Z,29.95
2022-11-05T09:09:03.548Z,28.52
2022-11-05T09:10:06.265Z,34.92
2022-11-05T09:11:08.583Z,35.40
2022-11-05T09:12:12.751Z,33.45
2022-11-05T09:13:19.547Z,31.33
2022-11-05T09:14:22.544Z,28.50
2022-11-05T09:15:25.034Z,38.90
2022-11-05T09:16:27.551Z,29.52
2022-11-05T09:17:29.908Z,29.60
2022-11-05T09:18:33.318Z,28.95
2022-11-05T09:19:39.830Z,29.95
2022-11-05T09:20:42.660Z,35.83
2022-11-05T09:21:44.984Z,31.27
2022-11-05T09:22:47.893Z,33.88
2022-11-05T09:23:50.375Z,35.42
2022-11-05T09:24:52.741Z,25.25
2022-11-05T09:25:55.126Z,33.20
2022-11-05T09:26:57.512Z,32.38
2022-11-05T09:28:13.422Z,30.63
2022-11-05T09:29:18.481Z,29.17
2022-11-05T09:30:20.787Z,27.30
2022-11-05T09:31:23.237Z,34.60
2022-11-05T09:32:25.540Z,28.15
2022-11-05T09:33:28.083Z,30.77
2022-11-05T09:34:30.426Z,29.83
2022-11-05T09:35:32.736Z,33.20
2022-11-05T09:36:35.018Z,31.30
2022-11-05T09:37:37.981Z,36.08
2022-11-05T09:38:40.613Z,39.60
2022-11-05T09:39:42.906Z,33.17
2022-11-05T09:41:08.529Z,40.83
2022-11-05T09:42:15.418Z,31.70
2022-11-05T09:43:23.246Z,31.38
2022-11-05T09:44:44.745Z,26.98
2022-11-05T09:45:50.280Z,32.85
2022-11-05T09:47:01.010Z,26.20
2022-11-05T09:48:14.622Z,27.77
2022-11-05T09:49:29.408Z,27.23
2022-11-05T09:50:52.145Z,26.60
2022-11-05T09:51:56.436Z,31.05
2022-11-05T09:52:58.998Z,33.00
2022-11-05T09:54:01.823Z,28.38
2022-11-05T09:55:14.346Z,26.38
2022-11-05T09:56:23.712Z,36.13
2022-11-05T09:57:31.265Z,33.72
2022-11-05T09:58:43.537Z,28.65
2022-11-05T09:59:49.932Z,26.08
2022-11-05T10:00:52.889Z,30.00
2022-11-05T10:02:04.063Z,28.92
2022-11-05T10:03:17.592Z,36.25
2022-11-05T10:04:23.502Z,29.30
2022-11-05T10:05:27.479Z,28.75
2022-11-05T10:06:29.892Z,29.27
2022-11-05T10:07:41.002Z,26.20
2022-11-05T10:08:45.223Z,25.30
2022-11-05T10:09:52.212Z,26.05
2022-11-05T10:11:00.239Z,44.25
2022-11-05T10:12:12.280Z,68.47
2022-11-05T10:13:41.624Z,66.30
2022-11-05T10:14:50.191Z,75.75
2022-11-05T10:16:08.873Z,50.22
2022-11-05T10:17:24.429Z,51.72
2022-11-05T10:18:33.523Z,45.47
2022-11-05T10:19:43.499Z,48.80
2022-11-05T10:20:46.235Z,43.45
2022-11-05T10:23:17.628Z,35.35
2022-11-05T10:24:22.691Z,39.60
2022-11-05T10:25:30.665Z,37.88
2022-11-05T10:26:33.102Z,37.65
2022-11-05T10:27:37.411Z,34.30
2022-11-05T10:28:39.876Z,44.80
2022-11-05T10:29:43.767Z,39.70
2022-11-05T10:30:48.483Z,34.20
2022-11-05T10:31:53.615Z,41.45
2022-11-05T10:32:59.328Z,34.65
2022-11-05T10:34:05.517Z,36.17
2022-11-05T10:35:13.084Z,41.00
2022-11-05T10:36:31.976Z,34.35
2022-11-05T10:37:40.511Z,31.20
2022-11-05T10:38:43.461Z,35.22
2022-11-05T10:39:45.792Z,30.92
2022-11-05T10:41:22.514Z,33.22
2022-11-05T10:42:58.646Z,30.13
2022-11-05T10:44:39.573Z,31.60
2022-11-05T10:46:15.544Z,34.72
2022-11-05T10:47:45.321Z,31.75
2022-11-05T10:49:18.641Z,36.63
2022-11-05T10:50:25.933Z,38.20
2022-11-05T10:51:29.495Z,35.40
2022-11-05T10:52:52.393Z,41.40
2022-11-05T10:54:01.939Z,31.23
2022-11-05T10:55:16.538Z,38.67
2022-11-05T10:56:32.446Z,42.80
2022-11-05T10:57:36.394Z,56.80
2022-11-05T10:58:52.833Z,47.53
2022-11-05T11:00:15.218Z,38.05
2022-11-05T11:01:17.933Z,46.25
2022-11-05T11:02:28.201Z,44.60
2022-11-05T11:03:41.522Z,58.25
2022-11-05T11:04:50.631Z,57.10
2022-11-05T11:06:18.903Z,50.05
2022-11-05T11:07:24.669Z,46.45
2022-11-05T11:08:28.369Z,43.65
2022-11-05T11:09:33.877Z,41.45
2022-11-05T11:10:51.827Z,40.55
2022-11-05T11:12:01.089Z,36.25
2022-11-05T11:13:04.017Z,40.78
2022-11-05T11:14:09.354Z,32.67
2022-11-05T11:15:27.363Z,40.85
2022-11-05T11:16:37.788Z,32.35
2022-11-05T11:17:40.751Z,40.22
2022-11-05T11:18:44.010Z,34.53
2022-11-05T11:19:46.384Z,33.92
2022-11-05T11:20:49.857Z,34.03
2022-11-05T11:22:13.665Z,30.52
2022-11-05T11:23:17.236Z,33.00
2022-11-05T11:24:28.502Z,31.55
2022-11-05T11:25:50.704Z,31.67
2022-11-05T11:26:53.157Z,30.23
2022-11-05T11:28:00.346Z,36.50
2022-11-05T11:29:08.543Z,31.63
2022-11-05T11:30:18.758Z,29.48
2022-11-05T11:31:23.824Z,30.17
2022-11-05T11:32:35.169Z,29.92
2022-11-05T11:34:42.256Z,29.23
2022-11-05T11:35:46.914Z,28.75
2022-11-05T11:36:56.086Z,28.85
2022-11-05T11:38:00.913Z,32.65
2022-11-05T11:39:05.772Z,35.53
2022-11-05T11:40:21.917Z,28.17
2022-11-05T11:41:32.710Z,34.47
2022-11-05T11:42:39.849Z,28.75
2022-11-05T11:43:43.572Z,32.13
2022-11-05T11:44:47.954Z,29.05
2022-11-05T11:45:53.720Z,26.35
2022-11-05T11:47:03.245Z,28.77
2022-11-05T11:48:07.019Z,30.95
2022-11-05T11:49:30.737Z,26.85
2022-11-05T11:50:45.160Z,28.40
2022-11-05T11:51:50.117Z,25.63
2022-11-05T11:52:52.677Z,27.92
2022-11-05T11:53:59.732Z,27.75
2022-11-05T11:55:11.174Z,26.00
2022-11-05T11:56:13.963Z,24.52
2022-11-05T11:57:25.628Z,26.30
2022-11-05T11:58:49.999Z,24.85
2022-11-05T12:00:08.504Z,30.02
2022-11-05T12:01:39.950Z,27.70
2022-11-05T12:03:02.160Z,30.67
2022-11-05T12:04:23.001Z,27.77
2022-11-05T12:05:42.418Z,26.48
2022-11-05T12:06:52.724Z,23.90
2022-11-05T12:08:11.066Z,24.63
2022-11-05T12:09:29.295Z,24.92
2022-11-05T12:10:39.631Z,23.73
2022-11-05T12:12:05.317Z,21.17
2022-11-05T12:13:19.451Z,60.25
2022-11-05T12:14:22.042Z,171.38
2022-11-05T12:15:46.627Z,134.35
2022-11-05T12:17:11.677Z,127.95
2022-11-05T12:18:32.104Z,116.10
2022-11-05T12:19:57.231Z,97.30
2022-11-05T12:21:48.146Z,76.05
2022-11-05T12:23:18.808Z,47.97
2022-11-05T12:24:45.320Z,53.63
2022-11-05T12:26:14.541Z,46.63
2022-11-05T12:28:01.549Z,45.90
2022-11-05T12:29:37.642Z,39.17
2022-11-05T12:30:52.695Z,41.10
2022-11-05T12:32:36.729Z,43.53
2022-11-05T12:33:46.867Z,43.28
2022-11-05T12:35:14.262Z,43.55
2022-11-05T12:36:28.515Z,19.50
2022-11-05T12:37:59.969Z,12.50
2022-11-05T12:39:32.822Z,8.73
2022-11-05T12:41:25.119Z,9.55
2022-11-05T12:42:39.183Z,10.95
2022-11-05T12:43:54.000Z,10.82
2022-11-05T12:44:59.052Z,9.88
2022-11-05T12:46:25.773Z,9.73
2022-11-05T12:47:34.140Z,76.07
2022-11-05T12:48:42.397Z,46.20
2022-11-05T12:50:17.808Z,42.13
2022-11-05T12:51:49.564Z,110.13
2022-11-05T12:53:10.116Z,85.78
2022-11-05T12:54:31.577Z,58.77
2022-11-05T12:55:48.119Z,46.20
2022-11-05T12:56:58.460Z,47.15
2022-11-05T12:58:26.017Z,40.78
2022-11-05T12:59:36.378Z,43.90
2022-11-05T13:00:46.368Z,47.45
2022-11-05T13:01:55.606Z,40.95
2022-11-05T13:03:05.321Z,37.47
2022-11-05T13:04:17.654Z,38.88
2022-11-05T13:05:37.427Z,39.00
2022-11-05T13:06:44.911Z,34.60
2022-11-05T13:08:02.731Z,32.35
2022-11-05T13:09:10.612Z,33.33
2022-11-05T13:10:25.282Z,28.15
2022-11-05T13:11:38.490Z,28.20
2022-11-05T13:12:43.577Z,30.40
2022-11-05T13:14:13.650Z,34.00
2022-11-05T13:15:26.556Z,31.38
2022-11-05T13:16:31.264Z,31.52
2022-11-05T13:17:51.546Z,30.80
2022-11-05T13:18:58.533Z,30.58
2022-11-05T13:20:17.124Z,33.45
2022-11-05T13:21:24.055Z,29.65
2022-11-05T13:22:55.269Z,28.38
2022-11-05T13:23:57.623Z,28.45
2022-11-05T13:25:12.981Z,33.30
2022-11-05T13:26:20.782Z,33.47
2022-11-05T13:27:59.120Z,35.35
2022-11-05T13:29:23.085Z,28.45
2022-11-05T13:30:30.016Z,29.30
2022-11-05T13:31:45.372Z,30.45
2022-11-05T13:32:56.026Z,35.08
2022-11-05T13:34:03.016Z,32.15
2022-11-05T13:35:14.010Z,28.92
2022-11-05T13:36:50.864Z,28.58
2022-11-05T13:38:17.230Z,32.47
2022-11-05T13:39:35.082Z,38.10
2022-11-05T13:41:12.489Z,34.30
2022-11-05T13:42:39.487Z,33.42
2022-11-05T13:44:30.891Z,26.73
2022-11-05T13:45:39.006Z,30.58
2022-11-05T13:46:57.933Z,45.88
2022-11-05T13:48:35.335Z,33.30
2022-11-05T13:49:40.475Z,32.20
2022-11-05T13:51:20.676Z,35.70
2022-11-05T13:52:39.407Z,33.53
2022-11-05T13:53:58.466Z,36.20
2022-11-05T14:01:17.284Z,28.80
2022-11-05T14:02:27.785Z,19.30
2022-11-05T14:03:30.395Z,15.68
2022-11-05T14:04:50.399Z,19.25
2022-11-05T14:06:20.774Z,22.20
2022-11-05T14:07:26.649Z,17.55
2022-11-05T14:08:32.004Z,12.38
2022-11-05T14:09:36.649Z,16.80
2022-11-05T14:10:42.253Z,11.93
2022-11-05T14:11:53.767Z,13.57
2022-11-05T14:12:59.175Z,14.30
2022-11-05T14:14:06.801Z,15.75
2022-11-05T14:15:26.339Z,13.52
2022-11-05T14:16:46.299Z,14.55
2022-11-05T14:18:02.192Z,12.20
2022-11-05T14:19:19.552Z,10.82
2022-11-05T14:20:32.707Z,11.13
2022-11-05T14:21:54.974Z,14.77
2022-11-05T14:23:19.133Z,8.68
2022-11-05T14:24:21.589Z,8.85
2022-11-05T14:25:25.140Z,10.85
2022-11-05T14:26:33.128Z,7.85
2022-11-05T14:27:47.414Z,10.93
2022-11-05T14:29:04.661Z,10.00
2022-11-05T14:30:41.381Z,7.90
2022-11-05T14:32:09.573Z,10.73
2022-11-05T14:33:25.632Z,8.57
2022-11-05T14:35:01.699Z,8.30
2022-11-05T14:36:22.187Z,8.45
2022-11-05T14:37:27.519Z,8.88
2022-11-05T14:38:30.013Z,7.38
2022-11-05T14:39:32.803Z,11.00
2022-11-05T14:40:44.337Z,10.00
2022-11-05T14:42:17.396Z,6.03
2022-11-05T14:43:24.501Z,6.88
2022-11-05T14:44:28.457Z,8.00
2022-11-05T14:45:40.527Z,9.85
2022-11-05T14:46:49.158Z,12.95
2022-11-05T14:47:58.251Z,6.13
2022-11-05T14:49:09.181Z,5.60
2022-11-05T14:50:22.398Z,5.20
2022-11-05T14:51:40.182Z,9.55
2022-11-05T14:53:04.583Z,7.57
2022-11-05T14:54:20.740Z,7.75
2022-11-05T14:55:34.720Z,7.00
2022-11-05T14:56:56.274Z,5.75
2022-11-05T14:57:59.093Z,4.90
2022-11-05T14:59:33.062Z,5.38
2022-11-05T15:00:39.680Z,7.05
2022-11-05T15:01:42.244Z,6.00
2022-11-05T15:03:01.279Z,6.28
2022-11-05T15:04:16.204Z,7.13
2022-11-05T15:05:38.901Z,5.97
2022-11-05T15:07:03.853Z,7.57
2022-11-05T15:08:46.861Z,6.68
2022-11-05T15:09:53.333Z,6.32
2022-11-05T15:11:15.032Z,12.45
2022-11-05T15:12:20.355Z,6.43
2022-11-05T15:13:58.696Z,6.20
2022-11-05T15:15:04.008Z,8.50